createdAt,value
2018-09-03T00:00:13.559Z,21.03
2018-09-03T00:02:25.870Z,21.87
2018-09-03T00:04:38.121Z,20.90
2018-09-03T00:06:50.331Z,18.93
2018-09-03T00:09:03.119Z,20.10
2018-09-03T00:11:15.336Z,19.17
2018-09-03T00:13:27.550Z,21.37
2018-09-03T00:15:39.723Z,21.37
2018-09-03T00:17:51.930Z,23.33
2018-09-03T00:20:04.193Z,20.87
2018-09-03T00:22:16.387Z,14.53
2018-09-03T00:24:28.619Z,15.50
2018-09-03T00:26:40.847Z,22.10
2018-09-03T00:28:53.077Z,21.23
2018-09-03T00:31:10.828Z,19.23
2018-09-03T00:34:26.558Z,20.40
2018-09-03T00:36:44.522Z,15.57
2018-09-03T00:39:02.281Z,20.23
2018-09-03T00:41:20.288Z,19.03
2018-09-03T00:43:38.167Z,19.40
2018-09-03T00:45:55.990Z,18.73
2018-09-03T00:48:08.162Z,19.60
2018-09-03T00:50:20.634Z,19.03
2018-09-03T00:52:32.855Z,20.97
2018-09-03T00:54:45.116Z,23.00
2018-09-03T00:56:57.346Z,22.60
2018-09-03T00:59:09.558Z,19.67
2018-09-03T01:01:21.812Z,20.00
2018-09-03T01:03:34.003Z,19.80
2018-09-03T01:05:46.246Z,21.80
2018-09-03T01:07:58.423Z,21.73
2018-09-03T01:10:10.641Z,19.53
2018-09-03T01:12:22.903Z,16.00
2018-09-03T01:14:35.058Z,21.63
2018-09-03T01:16:47.288Z,18.90
2018-09-03T01:18:59.462Z,20.03
2018-09-03T01:21:12.115Z,16.53
2018-09-03T01:23:24.326Z,19.27
2018-09-03T01:25:36.508Z,20.27
2018-09-03T01:27:48.713Z,22.97
2018-09-03T01:30:00.954Z,21.50
2018-09-03T01:32:13.157Z,20.80
2018-09-03T01:34:26.120Z,16.27
2018-09-03T01:36:38.322Z,20.60
2018-09-03T01:38:50.529Z,14.17
2018-09-03T01:41:02.844Z,17.27
2018-09-03T01:43:15.078Z,18.90
2018-09-03T01:45:27.268Z,20.10
2018-09-03T01:47:39.517Z,16.93
2018-09-03T01:49:51.767Z,18.20
2018-09-03T01:52:03.993Z,20.20
2018-09-03T01:54:16.241Z,19.63
2018-09-03T01:56:28.431Z,19.27
2018-09-03T01:58:40.642Z,20.07
2018-09-03T02:00:52.852Z,20.17
2018-09-03T02:03:05.109Z,20.77
2018-09-03T02:05:17.332Z,22.43
2018-09-03T02:07:29.514Z,16.90
2018-09-03T02:09:41.717Z,19.07
2018-09-03T02:11:53.906Z,19.40
2018-09-03T02:14:06.446Z,19.40
2018-09-03T02:16:18.690Z,17.67
2018-09-03T02:18:30.915Z,18.60
2018-09-03T02:20:43.163Z,16.43
2018-09-03T02:22:55.322Z,18.80
2018-09-03T02:25:07.598Z,16.47
2018-09-03T02:27:19.850Z,16.47
2018-09-03T02:29:32.063Z,17.17
2018-09-03T02:31:44.238Z,17.40
2018-09-03T02:33:56.454Z,11.57
2018-09-03T02:36:08.687Z,17.20
2018-09-03T02:38:20.879Z,18.53
2018-09-03T02:40:33.067Z,19.47
2018-09-03T02:42:45.311Z,19.10
2018-09-03T02:44:57.493Z,18.60
2018-09-03T02:47:09.708Z,17.27
2018-09-03T02:49:21.920Z,21.10
2018-09-03T02:51:34.128Z,21.20
2018-09-03T02:53:46.382Z,18.53
2018-09-03T02:55:58.587Z,22.70
2018-09-03T02:58:10.821Z,22.67
2018-09-03T03:00:25.231Z,18.60
2018-09-03T03:02:37.467Z,19.90
2018-09-03T03:04:49.684Z,21.17
2018-09-03T03:07:01.944Z,19.57
2018-09-03T03:09:14.227Z,20.63
2018-09-03T03:11:26.406Z,23.10
2018-09-03T03:13:38.606Z,22.23
2018-09-03T03:15:50.808Z,22.53
2018-09-03T03:18:03.040Z,22.40
2018-09-03T03:20:15.217Z,18.67
2018-09-03T03:22:27.465Z,20.53
2018-09-03T03:24:39.707Z,19.97
2018-09-03T03:26:51.916Z,20.40
2018-09-03T03:29:04.236Z,21.70
2018-09-03T03:31:16.469Z,23.07
2018-09-03T03:33:28.634Z,22.13
2018-09-03T03:35:40.991Z,23.07
2018-09-03T03:37:53.174Z,21.37
2018-09-03T03:40:05.513Z,21.43
2018-09-03T03:42:17.732Z,22.87
2018-09-03T03:44:29.984Z,21.40
2018-09-03T03:46:42.241Z,23.87
2018-09-03T03:48:54.458Z,12.50
2018-09-03T03:51:06.673Z,16.17
2018-09-03T03:53:18.902Z,20.97
2018-09-03T03:55:31.158Z,20.37
2018-09-03T03:57:43.361Z,20.30
2018-09-03T03:59:55.588Z,21.30
2018-09-03T04:02:08.008Z,21.77
2018-09-03T04:04:20.233Z,20.43
2018-09-03T04:06:32.414Z,22.57
2018-09-03T04:08:44.667Z,20.80
2018-09-03T04:10:56.862Z,22.03
2018-09-03T04:13:09.071Z,22.60
2018-09-03T04:15:21.827Z,21.67
2018-09-03T04:17:34.026Z,21.80
2018-09-03T04:19:52.790Z,20.30
2018-09-03T04:22:05.043Z,21.80
2018-09-03T04:24:17.230Z,23.50
2018-09-03T04:26:29.483Z,20.93
2018-09-03T04:28:41.687Z,23.27
2018-09-03T04:30:53.913Z,23.50
2018-09-03T04:33:06.223Z,19.80
2018-09-03T04:35:18.427Z,20.50
2018-09-03T04:37:30.643Z,22.93
2018-09-03T04:39:43.071Z,23.77
2018-09-03T04:41:55.366Z,18.23
2018-09-03T04:44:07.576Z,19.60
2018-09-03T04:46:19.784Z,17.93
2018-09-03T04:48:32.070Z,24.43
2018-09-03T04:50:44.238Z,21.73
2018-09-03T04:52:56.526Z,20.80
2018-09-03T04:55:08.771Z,21.33
2018-09-03T04:57:20.910Z,19.67
2018-09-03T04:59:33.115Z,23.77
2018-09-03T05:01:45.324Z,24.30
2018-09-03T05:03:57.566Z,22.50
2018-09-03T05:06:10.000Z,23.67
2018-09-03T05:08:22.250Z,24.97
2018-09-03T05:10:34.419Z,21.20
2018-09-03T05:12:46.730Z,24.93
2018-09-03T05:14:58.945Z,23.17
2018-09-03T05:17:11.258Z,21.23
2018-09-03T05:19:23.494Z,20.97
2018-09-03T05:21:35.676Z,18.27
2018-09-03T05:23:47.921Z,18.83
2018-09-03T05:26:00.219Z,23.80
2018-09-03T05:28:12.433Z,22.60
2018-09-03T05:30:24.621Z,23.87
2018-09-03T05:32:37.142Z,20.00
2018-09-03T05:34:49.348Z,12.97
2018-09-03T05:37:01.532Z,24.90
2018-09-03T05:39:13.836Z,23.83
2018-09-03T05:41:26.124Z,24.13
2018-09-03T05:43:38.451Z,23.13
2018-09-03T05:45:50.519Z,20.57
2018-09-03T05:48:02.718Z,23.83
2018-09-03T05:50:15.011Z,23.53
2018-09-03T05:52:27.151Z,23.27
2018-09-03T05:54:39.343Z,19.67
2018-09-03T05:56:51.600Z,23.50
2018-09-03T05:59:04.295Z,21.83
2018-09-03T06:01:16.734Z,25.57
2018-09-03T06:03:28.903Z,19.30
2018-09-03T06:05:41.102Z,21.03
2018-09-03T06:07:53.407Z,22.33
2018-09-03T06:10:05.634Z,22.17
2018-09-03T06:12:17.859Z,21.40
2018-09-03T06:14:30.037Z,23.53
2018-09-03T06:16:42.298Z,20.90
2018-09-03T06:18:54.735Z,22.23
2018-09-03T06:21:07.206Z,22.63
2018-09-03T06:23:19.502Z,22.77
2018-09-03T06:25:31.776Z,23.77
2018-09-03T06:27:43.974Z,25.60
2018-09-03T06:29:56.237Z,24.30
2018-09-03T06:32:08.459Z,20.87
2018-09-03T06:34:20.660Z,24.13
2018-09-03T06:36:32.838Z,22.20
2018-09-03T06:38:45.103Z,22.20
2018-09-03T06:40:57.318Z,22.37
2018-09-03T06:43:09.540Z,23.70
2018-09-03T06:45:21.726Z,23.17
2018-09-03T06:47:34.018Z,23.20
2018-09-03T06:49:46.270Z,20.37
2018-09-03T06:51:58.490Z,24.03
2018-09-03T06:54:10.778Z,23.40
2018-09-03T06:56:22.966Z,23.97
2018-09-03T06:58:35.247Z,23.03
2018-09-03T07:00:47.446Z,23.87
2018-09-03T07:02:59.649Z,23.77
2018-09-03T07:05:12.275Z,23.63
2018-09-03T07:07:24.524Z,24.83
2018-09-03T07:09:36.811Z,23.67
2018-09-03T07:11:49.035Z,23.90
2018-09-03T07:14:01.222Z,24.07
2018-09-03T07:16:13.410Z,24.07
2018-09-03T07:18:25.601Z,26.33
2018-09-03T07:20:37.822Z,27.80
2018-09-03T07:22:50.003Z,26.60
2018-09-03T07:25:02.316Z,24.77
2018-09-03T07:27:14.569Z,19.90
2018-09-03T07:29:26.863Z,23.53
2018-09-03T07:31:39.091Z,23.13
2018-09-03T07:33:51.362Z,18.77
2018-09-03T07:36:03.590Z,19.57
2018-09-03T07:38:15.812Z,20.43
2018-09-03T07:40:28.029Z,22.13
2018-09-03T07:42:40.342Z,18.63
2018-09-03T07:44:52.569Z,20.43
2018-09-03T07:47:04.823Z,17.37
2018-09-03T07:49:17.027Z,14.30
2018-09-03T07:51:29.292Z,18.80
2018-09-03T07:53:41.554Z,17.13
2018-09-03T07:55:53.731Z,18.73
2018-09-03T07:58:06.497Z,16.87
2018-09-03T08:00:18.717Z,13.47
2018-09-03T08:02:30.899Z,16.90
2018-09-03T08:04:43.358Z,19.53
2018-09-03T08:06:55.571Z,18.50
2018-09-03T08:09:09.491Z,19.63
2018-09-03T08:11:21.736Z,18.07
2018-09-03T08:13:39.433Z,18.37
2018-09-03T08:15:51.669Z,16.87
2018-09-03T08:18:03.866Z,19.17
2018-09-03T08:20:16.107Z,18.33
2018-09-03T08:22:28.307Z,20.13
2018-09-03T08:24:40.570Z,16.47
2018-09-03T08:26:52.860Z,18.70
2018-09-03T08:29:05.090Z,15.73
2018-09-03T08:31:17.344Z,17.73
2018-09-03T08:33:29.583Z,19.07
2018-09-03T08:35:41.836Z,17.40
2018-09-03T08:37:54.054Z,17.93
2018-09-03T08:40:06.294Z,18.40
2018-09-03T08:42:18.592Z,17.23
2018-09-03T08:44:30.818Z,20.80
2018-09-03T08:46:43.026Z,16.40
2018-09-03T08:48:55.226Z,18.87
2018-09-03T08:51:07.475Z,18.57
2018-09-03T08:53:19.718Z,17.03
2018-09-03T08:55:31.940Z,19.90
2018-09-03T08:57:44.199Z,15.63
2018-09-03T08:59:56.446Z,17.60
2018-09-03T09:02:08.903Z,18.40
2018-09-03T09:04:21.148Z,16.30
2018-09-03T09:06:33.351Z,18.73
2018-09-03T09:08:45.575Z,15.13
2018-09-03T09:10:57.847Z,15.40
2018-09-03T09:13:10.057Z,16.03
2018-09-03T09:15:22.321Z,17.10
2018-09-03T09:17:34.977Z,20.90
2018-09-03T09:19:47.170Z,20.67
2018-09-03T09:21:59.358Z,22.53
2018-09-03T09:24:11.631Z,22.93
2018-09-03T09:26:23.848Z,22.83
2018-09-03T09:28:36.083Z,21.33
2018-09-03T09:30:48.359Z,22.07
2018-09-03T09:33:00.570Z,20.90
2018-09-03T09:35:12.837Z,22.50
2018-09-03T09:37:25.158Z,21.63
2018-09-03T09:39:37.460Z,21.77
2018-09-03T09:41:49.657Z,21.27
2018-09-03T09:44:02.814Z,21.70
2018-09-03T09:46:15.045Z,18.27
2018-09-03T09:48:27.263Z,21.50
2018-09-03T09:50:39.450Z,21.20
2018-09-03T09:52:51.722Z,19.47
2018-09-03T09:55:04.050Z,20.90
2018-09-03T09:57:16.306Z,20.37
2018-09-03T09:59:28.648Z,16.93
2018-09-03T10:01:40.857Z,19.57
2018-09-03T10:03:53.120Z,18.20
2018-09-03T10:06:05.438Z,19.50
2018-09-03T10:08:17.660Z,16.87
2018-09-03T10:10:30.024Z,18.87
2018-09-03T10:12:43.176Z,16.30
2018-09-03T10:14:55.400Z,16.73
2018-09-03T10:17:07.670Z,18.03
2018-09-03T10:19:19.883Z,17.37
2018-09-03T10:21:32.153Z,16.53
2018-09-03T10:23:44.389Z,15.00
2018-09-03T10:25:56.572Z,16.83
2018-09-03T10:28:08.822Z,15.10
2018-09-03T10:30:21.071Z,16.80
2018-09-03T10:32:33.256Z,17.37
2018-09-03T10:34:45.488Z,15.67
2018-09-03T10:36:57.708Z,15.43
2018-09-03T10:39:09.908Z,16.50
2018-09-03T10:41:22.155Z,14.77
2018-09-03T10:43:34.427Z,16.00
2018-09-03T10:45:46.954Z,15.80
2018-09-03T10:47:59.147Z,15.00
2018-09-03T10:50:11.382Z,14.63
2018-09-03T10:52:23.660Z,14.73
2018-09-03T10:54:35.890Z,14.60
2018-09-03T10:56:48.123Z,15.30
2018-09-03T10:59:00.331Z,15.67
2018-09-03T11:01:12.531Z,15.20
2018-09-03T11:03:24.732Z,15.33
2018-09-03T11:05:36.967Z,14.83
2018-09-03T11:07:49.207Z,14.30
2018-09-03T11:10:01.440Z,14.43
2018-09-03T11:12:13.780Z,12.90
2018-09-03T11:14:25.996Z,14.50
2018-09-03T11:16:38.244Z,16.03
2018-09-03T11:18:50.531Z,16.10
2018-09-03T11:21:02.760Z,15.60
2018-09-03T11:23:14.943Z,15.27
2018-09-03T11:25:29.218Z,13.07
2018-09-03T11:27:41.471Z,15.53
2018-09-03T11:29:53.679Z,16.87
2018-09-03T11:32:05.889Z,16.87
2018-09-03T11:34:18.958Z,15.90
2018-09-03T11:36:31.173Z,18.63
2018-09-03T11:38:43.379Z,18.93
2018-09-03T11:40:55.682Z,20.87
2018-09-03T11:43:07.899Z,16.93
2018-09-03T11:45:21.246Z,20.43
2018-09-03T11:47:33.460Z,21.17
2018-09-03T11:49:45.731Z,21.93
2018-09-03T11:51:57.919Z,20.60
2018-09-03T11:54:10.171Z,21.27
2018-09-03T11:56:22.420Z,23.13
2018-09-03T11:58:34.736Z,22.30
2018-09-03T12:00:46.933Z,23.90
2018-09-03T12:02:59.398Z,24.10
2018-09-03T12:05:11.639Z,24.27
2018-09-03T12:07:23.932Z,24.63
2018-09-03T12:09:36.103Z,22.93
2018-09-03T12:11:48.294Z,23.03
2018-09-03T12:14:02.096Z,23.20
2018-09-03T12:16:17.070Z,23.80
2018-09-03T12:18:29.241Z,23.20
2018-09-03T12:20:41.447Z,22.97
2018-09-03T12:22:53.661Z,22.43
2018-09-03T12:25:06.209Z,22.47
2018-09-03T12:27:18.463Z,23.43
2018-09-03T12:29:30.672Z,22.93
2018-09-03T12:31:42.897Z,23.23
2018-09-03T12:33:55.151Z,21.90
2018-09-03T12:36:07.534Z,19.40
2018-09-03T12:38:19.741Z,23.43
2018-09-03T12:40:31.927Z,22.43
2018-09-03T12:42:44.172Z,21.40
2018-09-03T12:44:56.407Z,20.57
2018-09-03T12:47:08.611Z,22.10
2018-09-03T12:49:20.843Z,22.50
2018-09-03T12:51:33.062Z,21.27
2018-09-03T12:53:45.276Z,20.63
2018-09-03T12:55:57.479Z,20.27
2018-09-03T12:58:09.733Z,22.83
2018-09-03T13:00:21.966Z,22.47
2018-09-03T13:02:39.420Z,20.53
2018-09-03T13:04:46.414Z,20.73
2018-09-03T13:06:58.658Z,22.07
2018-09-03T13:09:10.863Z,18.67
2018-09-03T13:11:23.139Z,20.50
2018-09-03T13:13:35.368Z,18.63
2018-09-03T13:15:47.622Z,18.23
2018-09-03T13:17:59.828Z,18.07
2018-09-03T13:20:12.297Z,17.20
2018-09-03T13:22:24.519Z,16.97
2018-09-03T13:24:36.757Z,15.40
2018-09-03T13:26:49.018Z,17.07
2018-09-03T13:29:01.245Z,15.13
2018-09-03T13:31:13.476Z,16.07
2018-09-03T13:33:25.670Z,16.03
2018-09-03T13:35:37.911Z,16.03
2018-09-03T13:37:50.147Z,14.43
2018-09-03T13:40:02.441Z,14.50
2018-09-03T13:42:14.658Z,13.83
2018-09-03T13:44:26.831Z,14.07
2018-09-03T13:46:39.079Z,14.17
2018-09-03T13:48:51.399Z,13.77
2018-09-03T13:51:03.674Z,14.83
2018-09-03T13:53:15.886Z,14.23
2018-09-03T13:55:28.075Z,13.47
2018-09-03T13:57:40.309Z,14.53
2018-09-03T13:59:52.524Z,13.90
2018-09-03T14:02:05.207Z,12.93
2018-09-03T14:04:17.505Z,13.97
2018-09-03T14:06:29.839Z,13.50
2018-09-03T14:08:42.075Z,13.87
2018-09-03T14:10:54.266Z,12.80
2018-09-03T14:13:06.798Z,12.90
2018-09-03T14:15:19.036Z,13.87
2018-09-03T14:17:31.280Z,13.87
2018-09-03T14:19:43.541Z,12.27
2018-09-03T14:21:55.791Z,12.40
2018-09-03T14:24:08.089Z,10.20
2018-09-03T14:26:20.322Z,11.80
2018-09-03T14:28:32.647Z,15.00
2018-09-03T14:30:44.832Z,12.20
2018-09-03T14:32:57.115Z,13.13
2018-09-03T14:35:09.386Z,13.40
2018-09-03T14:37:21.709Z,12.47
2018-09-03T14:39:33.960Z,11.70
2018-09-03T14:41:46.248Z,10.93
2018-09-03T14:43:58.424Z,11.73
2018-09-03T14:46:10.739Z,10.37
2018-09-03T14:48:22.950Z,11.00
2018-09-03T14:50:35.181Z,10.47
2018-09-03T14:52:47.453Z,11.03
2018-09-03T14:54:59.638Z,10.10
2018-09-03T14:57:11.886Z,11.10
2018-09-03T14:59:24.102Z,10.70
2018-09-03T15:01:36.339Z,11.23
2018-09-03T15:03:48.602Z,11.23
2018-09-03T15:06:00.848Z,9.03
2018-09-03T15:08:13.244Z,10.90
2018-09-03T15:10:25.400Z,10.73
2018-09-03T15:12:37.727Z,10.37
2018-09-03T15:14:50.133Z,9.30
2018-09-03T15:17:02.468Z,9.97
2018-09-03T15:19:14.795Z,9.90
2018-09-03T15:21:27.023Z,7.93
2018-09-03T15:23:39.246Z,8.93
2018-09-03T15:25:51.521Z,8.70
2018-09-03T15:28:04.017Z,8.00
2018-09-03T15:30:16.308Z,10.17
2018-09-03T15:32:28.661Z,9.00
2018-09-03T15:34:41.013Z,7.77
2018-09-03T15:36:53.365Z,8.20
2018-09-03T15:39:08.773Z,8.13
2018-09-03T15:41:21.151Z,6.90
2018-09-03T15:43:33.475Z,6.73
2018-09-03T15:45:45.696Z,7.40
2018-09-03T15:47:57.979Z,8.50
2018-09-03T15:50:10.272Z,8.57
2018-09-03T15:52:22.512Z,8.23
2018-09-03T15:54:34.754Z,5.87
2018-09-03T15:56:47.030Z,7.00
2018-09-03T15:58:59.312Z,6.90
2018-09-03T16:01:11.518Z,7.70
2018-09-03T16:03:23.867Z,7.60
2018-09-03T16:05:36.141Z,5.80
2018-09-03T16:07:48.404Z,6.50
2018-09-03T16:10:00.701Z,6.97
2018-09-03T16:12:13.035Z,6.50
2018-09-03T16:14:25.242Z,6.67
2018-09-03T16:16:37.503Z,6.53
2018-09-03T16:18:49.750Z,7.10
2018-09-03T16:21:02.079Z,6.47
2018-09-03T16:23:14.261Z,5.90
2018-09-03T16:25:26.486Z,4.77
2018-09-03T16:27:38.828Z,6.37
2018-09-03T16:29:51.096Z,7.10
2018-09-03T16:32:03.375Z,6.60
2018-09-03T16:34:15.607Z,6.70
2018-09-03T16:36:27.835Z,5.20
2018-09-03T16:38:40.154Z,6.20
2018-09-03T16:40:52.375Z,6.40
2018-09-03T16:43:05.082Z,6.43
2018-09-03T16:45:17.347Z,7.07
2018-09-03T16:47:29.599Z,7.57
2018-09-03T16:49:41.875Z,6.70
2018-09-03T16:51:54.147Z,7.13
2018-09-03T16:54:06.391Z,7.07
2018-09-03T16:56:18.679Z,7.30
2018-09-03T16:58:30.940Z,6.33
2018-09-03T17:00:43.224Z,6.73
2018-09-03T17:02:55.447Z,6.53
2018-09-03T17:05:07.739Z,6.30
2018-09-03T17:07:20.133Z,6.50
2018-09-03T17:09:32.599Z,7.10
2018-09-03T17:11:44.842Z,6.33
2018-09-03T17:13:57.040Z,6.57
2018-09-03T17:16:09.308Z,6.63
2018-09-03T17:18:21.599Z,6.20
2018-09-03T17:20:33.931Z,5.80
2018-09-03T17:22:46.140Z,5.93
2018-09-03T17:24:58.475Z,5.87
2018-09-03T17:27:10.763Z,6.70
2018-09-03T17:29:23.047Z,6.23
2018-09-03T17:31:35.311Z,7.00
2018-09-03T17:33:47.614Z,6.67
2018-09-03T17:35:59.831Z,7.30
2018-09-03T17:38:12.117Z,6.43
2018-09-03T17:40:24.394Z,6.63
2018-09-03T17:42:36.724Z,7.50
2018-09-03T17:44:49.010Z,6.97
2018-09-03T17:47:01.380Z,6.57
2018-09-03T17:49:13.630Z,6.30
2018-09-03T17:51:25.826Z,6.63
2018-09-03T17:53:38.064Z,7.87
2018-09-03T17:55:50.400Z,6.87
2018-09-03T17:58:02.620Z,5.80
2018-09-03T18:00:14.984Z,6.43
2018-09-03T18:02:27.211Z,7.27
2018-09-03T18:04:39.539Z,6.20
2018-09-03T18:06:51.772Z,7.33
2018-09-03T18:09:05.469Z,8.40
2018-09-03T18:11:17.743Z,7.73
2018-09-03T18:13:29.994Z,8.20
2018-09-03T18:15:42.258Z,7.23
2018-09-03T18:17:54.499Z,7.80
2018-09-03T18:20:06.883Z,9.03
2018-09-03T18:22:19.107Z,9.70
2018-09-03T18:24:31.337Z,9.27
2018-09-03T18:26:43.570Z,11.47
2018-09-03T18:28:55.890Z,8.20
2018-09-03T18:31:08.193Z,7.60
2018-09-03T18:33:20.607Z,8.47
2018-09-03T18:35:32.811Z,7.40
2018-09-03T18:37:45.043Z,9.03
2018-09-03T18:39:57.274Z,8.17
2018-09-03T18:42:09.717Z,7.67
2018-09-03T18:44:21.959Z,7.97
2018-09-03T18:46:34.391Z,7.57
2018-09-03T18:48:46.678Z,5.63
2018-09-03T18:50:59.058Z,7.93
2018-09-03T18:53:11.404Z,8.47
2018-09-03T18:55:23.871Z,7.43
2018-09-03T18:57:36.443Z,8.20
2018-09-03T18:59:48.753Z,7.47
2018-09-03T19:02:01.259Z,6.77
2018-09-03T19:04:13.589Z,7.23
2018-09-03T19:06:25.883Z,7.13
2018-09-03T19:08:38.118Z,7.57
2018-09-03T19:10:50.359Z,7.00
2018-09-03T19:13:02.674Z,8.00
2018-09-03T19:15:14.899Z,7.50
2018-09-03T19:17:27.122Z,7.67
2018-09-03T19:19:39.410Z,8.10
2018-09-03T19:21:51.978Z,9.07
2018-09-03T19:24:04.580Z,9.67
2018-09-03T19:26:16.877Z,8.87
2018-09-03T19:28:29.163Z,7.63
2018-09-03T19:30:41.663Z,6.80
2018-09-03T19:32:53.967Z,8.13
2018-09-03T19:35:06.237Z,6.77
2018-09-03T19:37:18.499Z,8.10
2018-09-03T19:39:31.018Z,8.30
2018-09-03T19:41:43.231Z,7.37
2018-09-03T19:43:55.563Z,8.17
2018-09-03T19:46:07.796Z,7.77
2018-09-03T19:48:20.000Z,7.20
2018-09-03T19:50:32.248Z,8.17
2018-09-03T19:52:44.478Z,7.47
2018-09-03T19:54:56.747Z,8.43
2018-09-03T19:57:08.998Z,7.23
2018-09-03T19:59:21.202Z,8.37
2018-09-03T20:01:33.496Z,7.90
2018-09-03T20:03:45.757Z,8.33
2018-09-03T20:05:58.113Z,8.67
2018-09-03T20:08:10.412Z,7.90
2018-09-03T20:10:22.642Z,8.23
2018-09-03T20:12:34.870Z,7.40
2018-09-03T20:14:47.170Z,7.10
2018-09-03T20:16:59.487Z,8.40
2018-09-03T20:19:11.709Z,8.57
2018-09-03T20:21:23.989Z,8.73
2018-09-03T20:23:36.347Z,7.63
2018-09-03T20:25:48.542Z,8.20
2018-09-03T20:28:00.830Z,9.30
2018-09-03T20:30:13.041Z,7.80
2018-09-03T20:32:25.290Z,9.27
2018-09-03T20:34:37.552Z,9.27
2018-09-03T20:36:49.776Z,9.33
2018-09-03T20:39:02.103Z,7.57
2018-09-03T20:41:14.363Z,9.43
2018-09-03T20:43:26.639Z,7.20
2018-09-03T20:45:38.851Z,9.07
2018-09-03T20:47:51.197Z,9.33
2018-09-03T20:50:03.495Z,9.83
2018-09-03T20:52:15.710Z,8.93
2018-09-03T20:54:27.983Z,10.03
2018-09-03T20:56:40.195Z,9.23
2018-09-03T20:58:52.496Z,8.57
2018-09-03T21:01:04.870Z,8.30
2018-09-03T21:03:17.120Z,7.93
2018-09-03T21:05:29.484Z,8.97
2018-09-03T21:07:41.642Z,9.53
2018-09-03T21:09:53.875Z,9.47
2018-09-03T21:12:06.140Z,9.20
2018-09-03T21:14:18.469Z,8.63
2018-09-03T21:16:30.741Z,8.83
2018-09-03T21:18:42.958Z,9.80
2018-09-03T21:20:55.191Z,10.03
2018-09-03T21:23:07.402Z,7.90
2018-09-03T21:25:19.663Z,7.13
2018-09-03T21:27:31.891Z,7.73
2018-09-03T21:29:44.147Z,9.67
2018-09-03T21:31:56.365Z,9.43
2018-09-03T21:34:08.570Z,9.53
2018-09-03T21:36:20.811Z,7.53
2018-09-03T21:38:33.094Z,9.47
2018-09-03T21:40:45.331Z,9.43
2018-09-03T21:42:57.611Z,7.07
2018-09-03T21:45:09.837Z,7.53
2018-09-03T21:47:22.100Z,9.03
2018-09-03T21:49:34.474Z,9.30
2018-09-03T21:51:46.727Z,9.63
2018-09-03T21:53:58.941Z,7.87
2018-09-03T21:56:11.108Z,7.90
2018-09-03T21:58:23.330Z,7.77
2018-09-03T22:00:35.627Z,9.23
2018-09-03T22:02:47.840Z,9.73
2018-09-03T22:05:00.085Z,9.27
2018-09-03T22:07:12.336Z,8.80
2018-09-03T22:09:24.611Z,9.33
2018-09-03T22:11:36.825Z,9.70
2018-09-03T22:13:49.073Z,9.57
2018-09-03T22:16:01.350Z,9.57
2018-09-03T22:18:13.644Z,9.90
2018-09-03T22:20:25.822Z,9.43
2018-09-03T22:22:38.023Z,9.73
2018-09-03T22:24:50.242Z,8.80
2018-09-03T22:27:02.471Z,9.83
2018-09-03T22:29:14.699Z,7.03
2018-09-03T22:31:26.947Z,9.23
2018-09-03T22:33:39.224Z,8.80
2018-09-03T22:35:51.422Z,7.70
2018-09-03T22:38:03.635Z,8.83
2018-09-03T22:40:15.898Z,9.23
2018-09-03T22:42:28.106Z,9.30
2018-09-03T22:44:40.313Z,9.70
2018-09-03T22:46:52.506Z,8.87
2018-09-03T22:49:04.795Z,9.20
2018-09-03T22:51:17.095Z,9.30
2018-09-03T22:53:29.296Z,9.57
2018-09-03T22:55:41.523Z,8.43
2018-09-03T22:57:53.699Z,9.23
2018-09-03T23:00:06.355Z,9.23
2018-09-03T23:02:18.568Z,8.77
2018-09-03T23:04:30.829Z,9.43
2018-09-03T23:06:43.095Z,8.63
2018-09-03T23:08:55.303Z,9.17
2018-09-03T23:11:07.477Z,9.63
2018-09-03T23:13:19.679Z,9.07
2018-09-03T23:15:31.906Z,8.37
2018-09-03T23:17:44.114Z,7.73
2018-09-03T23:19:56.307Z,9.23
2018-09-03T23:22:09.058Z,9.67
2018-09-03T23:24:21.292Z,8.33
2018-09-03T23:26:33.600Z,8.23
2018-09-03T23:28:45.788Z,9.73
2018-09-03T23:30:57.974Z,9.90
2018-09-03T23:33:10.658Z,9.60
2018-09-03T23:35:22.830Z,9.17
2018-09-03T23:37:35.076Z,10.50
2018-09-03T23:39:47.271Z,7.70
2018-09-03T23:41:59.465Z,8.60
2018-09-03T23:44:11.707Z,9.73
2018-09-03T23:46:23.890Z,9.13
2018-09-03T23:48:36.099Z,9.33
2018-09-03T23:50:48.380Z,10.07
2018-09-03T23:53:00.641Z,8.17
2018-09-03T23:55:12.899Z,8.50
2018-09-03T23:57:25.070Z,9.90
2018-09-03T23:59:37.276Z,7.97
